sensor_id;sensor_type;location;lat;lon;timestamp;P1;P2;P0
78408;PMS5003;67697;50.750;-3.270;2024-02-21T00:02:15;7;7;
78408;PMS5003;67697;50.750;-3.270;2024-02-21T00:04:43;9;9;
78408;PMS5003;67697;50.750;-3.270;2024-02-21T00:07:06;10;7;
78408;PMS5003;67697;50.750;-3.270;2024-02-21T00:09:31;11;9;
78408;PMS5003;67697;50.750;-3.270;2024-02-21T00:11:57;10;8;
78408;PMS5003;67697;50.750;-3.270;2024-02-21T00:14:22;9;8;
78408;PMS5003;67697;50.750;-3.270;2024-02-21T00:16:48;11;10;
78408;PMS5003;67697;50.750;-3.270;2024-02-21T00:19:13;13;12;
78408;PMS5003;67697;50.750;-3.270;2024-02-21T00:21:38;14;11;
78408;PMS5003;67697;50.750;-3.270;2024-02-21T00:24:04;14;10;
78408;PMS5003;67697;50.750;-3.270;2024-02-21T00:26:29;13;12;
78408;PMS5003;67697;50.750;-3.270;2024-02-21T00:28:55;13;10;
78408;PMS5003;67697;50.750;-3.270;2024-02-21T00:31:20;11;9;
78408;PMS5003;67697;50.750;-3.270;2024-02-21T00:33:46;9;7;
78408;PMS5003;67697;50.750;-3.270;2024-02-21T00:36:11;16;10;
78408;PMS5003;67697;50.750;-3.270;2024-02-21T00:38:37;13;7;
78408;PMS5003;67697;50.750;-3.270;2024-02-21T00:41:03;8;7;
78408;PMS5003;67697;50.750;-3.270;2024-02-21T00:43:29;9;8;
78408;PMS5003;67697;50.750;-3.270;2024-02-21T00:45:54;13;10;
78408;PMS5003;67697;50.750;-3.270;2024-02-21T00:48:19;14;10;
78408;PMS5003;67697;50.750;-3.270;2024-02-21T00:50:45;13;12;
78408;PMS5003;67697;50.750;-3.270;2024-02-21T00:53:11;10;6;
78408;PMS5003;67697;50.750;-3.270;2024-02-21T00:55:36;9;8;
78408;PMS5003;67697;50.750;-3.270;2024-02-21T00:58:02;13;9;
78408;PMS5003;67697;50.750;-3.270;2024-02-21T01:00:28;10;8;
78408;PMS5003;67697;50.750;-3.270;2024-02-21T01:02:53;9;7;
78408;PMS5003;67697;50.750;-3.270;2024-02-21T01:05:19;12;12;
78408;PMS5003;67697;50.750;-3.270;2024-02-21T01:07:45;12;9;
78408;PMS5003;67697;50.750;-3.270;2024-02-21T01:10:10;13;8;
78408;PMS5003;67697;50.750;-3.270;2024-02-21T01:12:41;10;9;
78408;PMS5003;67697;50.750;-3.270;2024-02-21T01:15:02;12;8;
78408;PMS5003;67697;50.750;-3.270;2024-02-21T01:17:27;16;15;
78408;PMS5003;67697;50.750;-3.270;2024-02-21T01:19:52;14;10;
78408;PMS5003;67697;50.750;-3.270;2024-02-21T01:22:18;15;15;
78408;PMS5003;67697;50.750;-3.270;2024-02-21T01:24:44;13;12;
78408;PMS5003;67697;50.750;-3.270;2024-02-21T01:27:09;12;8;
78408;PMS5003;67697;50.750;-3.270;2024-02-21T01:29:34;13;13;
78408;PMS5003;67697;50.750;-3.270;2024-02-21T01:31:59;9;9;
78408;PMS5003;67697;50.750;-3.270;2024-02-21T01:34:25;13;9;
78408;PMS5003;67697;50.750;-3.270;2024-02-21T01:36:51;10;9;
78408;PMS5003;67697;50.750;-3.270;2024-02-21T01:39:17;16;10;
78408;PMS5003;67697;50.750;-3.270;2024-02-21T01:41:42;14;13;
78408;PMS5003;67697;50.750;-3.270;2024-02-21T01:44:08;13;12;
78408;PMS5003;67697;50.750;-3.270;2024-02-21T01:46:33;14;10;
78408;PMS5003;67697;50.750;-3.270;2024-02-21T01:48:58;15;13;
78408;PMS5003;67697;50.750;-3.270;2024-02-21T01:51:24;13;13;
78408;PMS5003;67697;50.750;-3.270;2024-02-21T01:53:49;16;14;
78408;PMS5003;67697;50.750;-3.270;2024-02-21T01:56:15;15;14;
78408;PMS5003;67697;50.750;-3.270;2024-02-21T01:58:41;10;10;
78408;PMS5003;67697;50.750;-3.270;2024-02-21T02:01:06;12;10;
78408;PMS5003;67697;50.750;-3.270;2024-02-21T02:03:32;9;9;
78408;PMS5003;67697;50.750;-3.270;2024-02-21T02:05:58;15;10;
78408;PMS5003;67697;50.750;-3.270;2024-02-21T02:08:23;9;9;
78408;PMS5003;67697;50.750;-3.270;2024-02-21T02:13:14;10;7;
78408;PMS5003;67697;50.750;-3.270;2024-02-21T02:15:40;12;7;
78408;PMS5003;67697;50.750;-3.270;2024-02-21T02:18:06;7;7;
78408;PMS5003;67697;50.750;-3.270;2024-02-21T02:20:33;8;8;
78408;PMS5003;67697;50.750;-3.270;2024-02-21T02:22:57;10;9;
78408;PMS5003;67697;50.750;-3.270;2024-02-21T02:25:22;12;8;
78408;PMS5003;67697;50.750;-3.270;2024-02-21T02:27:48;8;8;
78408;PMS5003;67697;50.750;-3.270;2024-02-21T02:30:14;8;8;
78408;PMS5003;67697;50.750;-3.270;2024-02-21T02:32:39;12;10;
78408;PMS5003;67697;50.750;-3.270;2024-02-21T02:35:05;8;8;
78408;PMS5003;67697;50.750;-3.270;2024-02-21T02:37:30;9;9;
78408;PMS5003;67697;50.750;-3.270;2024-02-21T02:39:56;10;8;
78408;PMS5003;67697;50.750;-3.270;2024-02-21T02:42:22;13;12;
78408;PMS5003;67697;50.750;-3.270;2024-02-21T02:44:47;14;9;
78408;PMS5003;67697;50.750;-3.270;2024-02-21T02:47:13;9;9;
78408;PMS5003;67697;50.750;-3.270;2024-02-21T02:49:38;13;12;
78408;PMS5003;67697;50.750;-3.270;2024-02-21T02:52:06;10;10;
78408;PMS5003;67697;50.750;-3.270;2024-02-21T02:54:29;8;8;
78408;PMS5003;67697;50.750;-3.270;2024-02-21T02:56:55;12;8;
78408;PMS5003;67697;50.750;-3.270;2024-02-21T02:59:20;9;8;
78408;PMS5003;67697;50.750;-3.270;2024-02-21T03:01:46;8;8;
78408;PMS5003;67697;50.750;-3.270;2024-02-21T03:04:12;9;8;
78408;PMS5003;67697;50.750;-3.270;2024-02-21T03:06:38;13;12;
78408;PMS5003;67697;50.750;-3.270;2024-02-21T03:09:03;15;9;
78408;PMS5003;67697;50.750;-3.270;2024-02-21T03:11:29;12;8;
78408;PMS5003;67697;50.750;-3.270;2024-02-21T03:13:55;9;9;
78408;PMS5003;67697;50.750;-3.270;2024-02-21T03:16:20;15;12;
78408;PMS5003;67697;50.750;-3.270;2024-02-21T03:18:46;14;10;
78408;PMS5003;67697;50.750;-3.270;2024-02-21T03:21:12;14;12;
78408;PMS5003;67697;50.750;-3.270;2024-02-21T03:23:37;7;7;
78408;PMS5003;67697;50.750;-3.270;2024-02-21T03:26:03;9;9;
78408;PMS5003;67697;50.750;-3.270;2024-02-21T03:28:28;7;7;
78408;PMS5003;67697;50.750;-3.270;2024-02-21T03:30:54;12;10;
78408;PMS5003;67697;50.750;-3.270;2024-02-21T03:33:19;9;9;
78408;PMS5003;67697;50.750;-3.270;2024-02-21T03:35:45;7;7;
78408;PMS5003;67697;50.750;-3.270;2024-02-21T03:38:10;10;8;
78408;PMS5003;67697;50.750;-3.270;2024-02-21T03:40:36;11;11;
78408;PMS5003;67697;50.750;-3.270;2024-02-21T03:43:02;9;7;
78408;PMS5003;67697;50.750;-3.270;2024-02-21T03:45:27;13;8;
78408;PMS5003;67697;50.750;-3.270;2024-02-21T03:47:52;9;6;
78408;PMS5003;67697;50.750;-3.270;2024-02-21T03:50:18;9;7;
78408;PMS5003;67697;50.750;-3.270;2024-02-21T03:52:44;10;8;
78408;PMS5003;67697;50.750;-3.270;2024-02-21T03:55:09;8;8;
78408;PMS5003;67697;50.750;-3.270;2024-02-21T03:57:35;8;8;
78408;PMS5003;67697;50.750;-3.270;2024-02-21T04:00:01;12;8;
78408;PMS5003;67697;50.750;-3.270;2024-02-21T04:02:26;7;4;
78408;PMS5003;67697;50.750;-3.270;2024-02-21T04:04:52;9;8;
78408;PMS5003;67697;50.750;-3.270;2024-02-21T04:07:17;6;6;
78408;PMS5003;67697;50.750;-3.270;2024-02-21T04:09:43;8;7;
78408;PMS5003;67697;50.750;-3.270;2024-02-21T04:12:09;4;4;
78408;PMS5003;67697;50.750;-3.270;2024-02-21T04:14:34;5;4;
78408;PMS5003;67697;50.750;-3.270;2024-02-21T04:17:00;3;3;
78408;PMS5003;67697;50.750;-3.270;2024-02-21T04:19:26;3;3;
78408;PMS5003;67697;50.750;-3.270;2024-02-21T04:21:51;8;7;
78408;PMS5003;67697;50.750;-3.270;2024-02-21T04:24:17;4;3;
78408;PMS5003;67697;50.750;-3.270;2024-02-21T04:26:43;7;3;
78408;PMS5003;67697;50.750;-3.270;2024-02-21T04:29:08;3;3;
78408;PMS5003;67697;50.750;-3.270;2024-02-21T04:31:34;2;2;
78408;PMS5003;67697;50.750;-3.270;2024-02-21T04:34:00;6;4;
78408;PMS5003;67697;50.750;-3.270;2024-02-21T04:36:25;6;2;
78408;PMS5003;67697;50.750;-3.270;2024-02-21T04:38:51;3;3;
78408;PMS5003;67697;50.750;-3.270;2024-02-21T04:41:17;6;4;
78408;PMS5003;67697;50.750;-3.270;2024-02-21T04:43:42;2;2;
78408;PMS5003;67697;50.750;-3.270;2024-02-21T04:46:08;7;3;
78408;PMS5003;67697;50.750;-3.270;2024-02-21T04:48:34;4;3;
78408;PMS5003;67697;50.750;-3.270;2024-02-21T04:50:59;6;4;
78408;PMS5003;67697;50.750;-3.270;2024-02-21T04:53:27;4;4;
78408;PMS5003;67697;50.750;-3.270;2024-02-21T04:55:51;2;2;
78408;PMS5003;67697;50.750;-3.270;2024-02-21T04:58:16;3;3;
78408;PMS5003;67697;50.750;-3.270;2024-02-21T05:00:42;7;4;
78408;PMS5003;67697;50.750;-3.270;2024-02-21T05:03:08;6;4;
78408;PMS5003;67697;50.750;-3.270;2024-02-21T05:05:33;7;6;
78408;PMS5003;67697;50.750;-3.270;2024-02-21T05:07:59;12;7;
78408;PMS5003;67697;50.750;-3.270;2024-02-21T05:10:24;6;6;
78408;PMS5003;67697;50.750;-3.270;2024-02-21T05:12:50;7;6;
78408;PMS5003;67697;50.750;-3.270;2024-02-21T05:15:16;7;7;
78408;PMS5003;67697;50.750;-3.270;2024-02-21T05:17:41;8;4;
78408;PMS5003;67697;50.750;-3.270;2024-02-21T05:20:07;13;9;
78408;PMS5003;67697;50.750;-3.270;2024-02-21T05:22:32;10;7;
78408;PMS5003;67697;50.750;-3.270;2024-02-21T05:24:58;13;12;
78408;PMS5003;67697;50.750;-3.270;2024-02-21T05:27:23;9;7;
78408;PMS5003;67697;50.750;-3.270;2024-02-21T05:29:49;10;10;
78408;PMS5003;67697;50.750;-3.270;2024-02-21T05:32:14;9;9;
78408;PMS5003;67697;50.750;-3.270;2024-02-21T05:34:40;6;6;
78408;PMS5003;67697;50.750;-3.270;2024-02-21T05:37:06;12;8;
78408;PMS5003;67697;50.750;-3.270;2024-02-21T05:39:31;9;7;
78408;PMS5003;67697;50.750;-3.270;2024-02-21T05:41:57;3;3;
78408;PMS5003;67697;50.750;-3.270;2024-02-21T05:44:23;4;4;
78408;PMS5003;67697;50.750;-3.270;2024-02-21T05:46:48;6;6;
78408;PMS5003;67697;50.750;-3.270;2024-02-21T05:49:14;12;9;
78408;PMS5003;67697;50.750;-3.270;2024-02-21T05:51:39;4;4;
78408;PMS5003;67697;50.750;-3.270;2024-02-21T05:54:05;7;4;
78408;PMS5003;67697;50.750;-3.270;2024-02-21T05:56:31;7;4;
78408;PMS5003;67697;50.750;-3.270;2024-02-21T05:58:56;9;4;
78408;PMS5003;67697;50.750;-3.270;2024-02-21T06:01:22;8;4;
78408;PMS5003;67697;50.750;-3.270;2024-02-21T06:03:47;7;4;
78408;PMS5003;67697;50.750;-3.270;2024-02-21T06:06:13;8;4;
78408;PMS5003;67697;50.750;-3.270;2024-02-21T06:08:39;8;7;
78408;PMS5003;67697;50.750;-3.270;2024-02-21T06:11:04;10;8;
78408;PMS5003;67697;50.750;-3.270;2024-02-21T06:13:30;13;9;
78408;PMS5003;67697;50.750;-3.270;2024-02-21T06:15:56;6;6;
78408;PMS5003;67697;50.750;-3.270;2024-02-21T06:18:21;7;3;
78408;PMS5003;67697;50.750;-3.270;2024-02-21T06:20:47;10;8;
78408;PMS5003;67697;50.750;-3.270;2024-02-21T06:23:13;7;7;
78408;PMS5003;67697;50.750;-3.270;2024-02-21T06:25:38;8;6;
78408;PMS5003;67697;50.750;-3.270;2024-02-21T06:28:05;9;7;
78408;PMS5003;67697;50.750;-3.270;2024-02-21T06:30:29;8;6;
78408;PMS5003;67697;50.750;-3.270;2024-02-21T06:32:55;12;8;
78408;PMS5003;67697;50.750;-3.270;2024-02-21T06:35:21;13;7;
78408;PMS5003;67697;50.750;-3.270;2024-02-21T06:37:46;6;4;
78408;PMS5003;67697;50.750;-3.270;2024-02-21T06:40:13;6;6;
78408;PMS5003;67697;50.750;-3.270;2024-02-21T06:42:38;8;8;
78408;PMS5003;67697;50.750;-3.270;2024-02-21T06:45:04;8;3;
78408;PMS5003;67697;50.750;-3.270;2024-02-21T06:47:29;8;6;
78408;PMS5003;67697;50.750;-3.270;2024-02-21T06:49:54;12;8;
78408;PMS5003;67697;50.750;-3.270;2024-02-21T06:52:21;9;7;
78408;PMS5003;67697;50.750;-3.270;2024-02-21T06:54:46;4;4;
78408;PMS5003;67697;50.750;-3.270;2024-02-21T06:57:11;6;3;
78408;PMS5003;67697;50.750;-3.270;2024-02-21T06:59:37;4;3;
78408;PMS5003;67697;50.750;-3.270;2024-02-21T07:02:03;6;3;
78408;PMS5003;67697;50.750;-3.270;2024-02-21T07:04:28;8;4;
78408;PMS5003;67697;50.750;-3.270;2024-02-21T07:06:54;6;3;
78408;PMS5003;67697;50.750;-3.270;2024-02-21T07:09:19;8;6;
78408;PMS5003;67697;50.750;-3.270;2024-02-21T07:11:45;7;4;
78408;PMS5003;67697;50.750;-3.270;2024-02-21T07:14:11;9;4;
78408;PMS5003;67697;50.750;-3.270;2024-02-21T07:16:37;4;4;
78408;PMS5003;67697;50.750;-3.270;2024-02-21T07:19:03;9;8;
78408;PMS5003;67697;50.750;-3.270;2024-02-21T07:21:28;7;7;
78408;PMS5003;67697;50.750;-3.270;2024-02-21T07:23:53;7;4;
78408;PMS5003;67697;50.750;-3.270;2024-02-21T07:26:19;7;7;
78408;PMS5003;67697;50.750;-3.270;2024-02-21T07:28:46;4;4;
78408;PMS5003;67697;50.750;-3.270;2024-02-21T07:31:10;8;6;
78408;PMS5003;67697;50.750;-3.270;2024-02-21T07:33:35;7;2;
78408;PMS5003;67697;50.750;-3.270;2024-02-21T07:36:01;2;2;
78408;PMS5003;67697;50.750;-3.270;2024-02-21T07:38:26;10;9;
78408;PMS5003;67697;50.750;-3.270;2024-02-21T07:40:52;12;6;
78408;PMS5003;67697;50.750;-3.270;2024-02-21T07:43:17;6;6;
78408;PMS5003;67697;50.750;-3.270;2024-02-21T07:45:43;3;3;
78408;PMS5003;67697;50.750;-3.270;2024-02-21T07:48:09;8;6;
78408;PMS5003;67697;50.750;-3.270;2024-02-21T07:50:34;5;5;
78408;PMS5003;67697;50.750;-3.270;2024-02-21T07:53:00;6;3;
78408;PMS5003;67697;50.750;-3.270;2024-02-21T07:55:26;7;3;
78408;PMS5003;67697;50.750;-3.270;2024-02-21T07:57:51;3;3;
78408;PMS5003;67697;50.750;-3.270;2024-02-21T08:00:18;3;3;
78408;PMS5003;67697;50.750;-3.270;2024-02-21T08:02:43;4;2;
78408;PMS5003;67697;50.750;-3.270;2024-02-21T08:05:08;9;2;
78408;PMS5003;67697;50.750;-3.270;2024-02-21T08:07:34;2;2;
78408;PMS5003;67697;50.750;-3.270;2024-02-21T08:09:59;3;2;
78408;PMS5003;67697;50.750;-3.270;2024-02-21T08:12:25;3;3;
78408;PMS5003;67697;50.750;-3.270;2024-02-21T08:14:51;6;3;
78408;PMS5003;67697;50.750;-3.270;2024-02-21T08:17:16;4;4;
78408;PMS5003;67697;50.750;-3.270;2024-02-21T08:19:42;3;1;
78408;PMS5003;67697;50.750;-3.270;2024-02-21T08:22:08;2;2;
78408;PMS5003;67697;50.750;-3.270;2024-02-21T08:24:33;2;2;
78408;PMS5003;67697;50.750;-3.270;2024-02-21T08:26:59;4;2;
78408;PMS5003;67697;50.750;-3.270;2024-02-21T08:29:25;4;2;
78408;PMS5003;67697;50.750;-3.270;2024-02-21T08:31:51;3;2;
78408;PMS5003;67697;50.750;-3.270;2024-02-21T08:34:16;1;1;
78408;PMS5003;67697;50.750;-3.270;2024-02-21T08:36:42;3;2;
78408;PMS5003;67697;50.750;-3.270;2024-02-21T08:39:07;1;1;
78408;PMS5003;67697;50.750;-3.270;2024-02-21T08:41:33;2;2;
78408;PMS5003;67697;50.750;-3.270;2024-02-21T08:43:59;1;1;
78408;PMS5003;67697;50.750;-3.270;2024-02-21T08:46:24;3;3;
78408;PMS5003;67697;50.750;-3.270;2024-02-21T08:48:50;1;1;
78408;PMS5003;67697;50.750;-3.270;2024-02-21T08:51:16;2;2;
78408;PMS5003;67697;50.750;-3.270;2024-02-21T08:53:41;0;0;
78408;PMS5003;67697;50.750;-3.270;2024-02-21T08:56:07;2;2;
78408;PMS5003;67697;50.750;-3.270;2024-02-21T08:58:32;2;2;
78408;PMS5003;67697;50.750;-3.270;2024-02-21T09:00:58;7;3;
78408;PMS5003;67697;50.750;-3.270;2024-02-21T09:03:24;2;1;
78408;PMS5003;67697;50.750;-3.270;2024-02-21T09:05:49;2;2;
78408;PMS5003;67697;50.750;-3.270;2024-02-21T09:08:15;3;2;
78408;PMS5003;67697;50.750;-3.270;2024-02-21T09:10:41;6;3;
78408;PMS5003;67697;50.750;-3.270;2024-02-21T09:13:07;2;2;
78408;PMS5003;67697;50.750;-3.270;2024-02-21T09:15:32;3;3;
78408;PMS5003;67697;50.750;-3.270;2024-02-21T09:17:57;3;3;
78408;PMS5003;67697;50.750;-3.270;2024-02-21T09:20:23;0;0;
78408;PMS5003;67697;50.750;-3.270;2024-02-21T09:22:49;3;1;
78408;PMS5003;67697;50.750;-3.270;2024-02-21T09:25:14;6;6;
78408;PMS5003;67697;50.750;-3.270;2024-02-21T09:27:40;4;2;
78408;PMS5003;67697;50.750;-3.270;2024-02-21T09:30:07;1;1;
78408;PMS5003;67697;50.750;-3.270;2024-02-21T09:32:32;4;2;
78408;PMS5003;67697;50.750;-3.270;2024-02-21T09:34:57;2;2;
78408;PMS5003;67697;50.750;-3.270;2024-02-21T09:37:23;4;1;
78408;PMS5003;67697;50.750;-3.270;2024-02-21T09:39:48;4;3;
78408;PMS5003;67697;50.750;-3.270;2024-02-21T09:42:14;3;1;
78408;PMS5003;67697;50.750;-3.270;2024-02-21T09:44:40;2;2;
78408;PMS5003;67697;50.750;-3.270;2024-02-21T09:47:07;2;2;
78408;PMS5003;67697;50.750;-3.270;2024-02-21T09:49:31;4;1;
78408;PMS5003;67697;50.750;-3.270;2024-02-21T09:51:57;3;1;
78408;PMS5003;67697;50.750;-3.270;2024-02-21T09:54:22;1;1;
78408;PMS5003;67697;50.750;-3.270;2024-02-21T09:56:48;2;2;
78408;PMS5003;67697;50.750;-3.270;2024-02-21T09:59:13;6;2;
78408;PMS5003;67697;50.750;-3.270;2024-02-21T10:01:39;4;3;
78408;PMS5003;67697;50.750;-3.270;2024-02-21T10:04:05;3;3;
78408;PMS5003;67697;50.750;-3.270;2024-02-21T10:06:30;8;3;
78408;PMS5003;67697;50.750;-3.270;2024-02-21T10:08:56;3;2;
78408;PMS5003;67697;50.750;-3.270;2024-02-21T10:11:22;2;2;
78408;PMS5003;67697;50.750;-3.270;2024-02-21T10:13:47;2;1;
78408;PMS5003;67697;50.750;-3.270;2024-02-21T10:16:13;4;2;
78408;PMS5003;67697;50.750;-3.270;2024-02-21T10:18:39;6;3;
78408;PMS5003;67697;50.750;-3.270;2024-02-21T10:21:05;3;3;
78408;PMS5003;67697;50.750;-3.270;2024-02-21T10:28:21;2;1;
78408;PMS5003;67697;50.750;-3.270;2024-02-21T10:30:49;1;1;
78408;PMS5003;67697;50.750;-3.270;2024-02-21T10:33:15;1;1;
78408;PMS5003;67697;50.750;-3.270;2024-02-21T10:35:38;1;1;
78408;PMS5003;67697;50.750;-3.270;2024-02-21T10:38:04;3;1;
78408;PMS5003;67697;50.750;-3.270;2024-02-21T10:40:30;1;1;
78408;PMS5003;67697;50.750;-3.270;2024-02-21T10:42:56;2;2;
78408;PMS5003;67697;50.750;-3.270;2024-02-21T10:45:21;4;3;
78408;PMS5003;67697;50.750;-3.270;2024-02-21T10:47:47;4;4;
78408;PMS5003;67697;50.750;-3.270;2024-02-21T10:50:12;1;1;
78408;PMS5003;67697;50.750;-3.270;2024-02-21T10:52:41;2;1;
78408;PMS5003;67697;50.750;-3.270;2024-02-21T10:55:04;2;0;
78408;PMS5003;67697;50.750;-3.270;2024-02-21T10:57:31;1;1;
78408;PMS5003;67697;50.750;-3.270;2024-02-21T10:59:55;2;2;
78408;PMS5003;67697;50.750;-3.270;2024-02-21T11:02:20;1;1;
78408;PMS5003;67697;50.750;-3.270;2024-02-21T11:04:46;2;2;
78408;PMS5003;67697;50.750;-3.270;2024-02-21T11:07:12;2;2;
78408;PMS5003;67697;50.750;-3.270;2024-02-21T11:09:37;1;1;
78408;PMS5003;67697;50.750;-3.270;2024-02-21T11:12:05;0;0;
78408;PMS5003;67697;50.750;-3.270;2024-02-21T11:14:29;1;1;
78408;PMS5003;67697;50.750;-3.270;2024-02-21T11:16:54;0;0;
78408;PMS5003;67697;50.750;-3.270;2024-02-21T11:19:21;2;2;
78408;PMS5003;67697;50.750;-3.270;2024-02-21T11:21:46;2;1;
78408;PMS5003;67697;50.750;-3.270;2024-02-21T11:24:11;3;0;
78408;PMS5003;67697;50.750;-3.270;2024-02-21T11:26:37;1;1;
78408;PMS5003;67697;50.750;-3.270;2024-02-21T11:29:03;3;2;
78408;PMS5003;67697;50.750;-3.270;2024-02-21T11:33:54;2;2;
78408;PMS5003;67697;50.750;-3.270;2024-02-21T11:36:23;2;2;
78408;PMS5003;67697;50.750;-3.270;2024-02-21T11:38:45;2;1;
78408;PMS5003;67697;50.750;-3.270;2024-02-21T11:41:11;3;3;
78408;PMS5003;67697;50.750;-3.270;2024-02-21T11:43:37;1;1;
78408;PMS5003;67697;50.750;-3.270;2024-02-21T11:46:02;1;1;
78408;PMS5003;67697;50.750;-3.270;2024-02-21T11:48:28;2;2;
78408;PMS5003;67697;50.750;-3.270;2024-02-21T11:50:54;3;1;
78408;PMS5003;67697;50.750;-3.270;2024-02-21T11:53:19;2;2;
78408;PMS5003;67697;50.750;-3.270;2024-02-21T11:55:45;1;1;
78408;PMS5003;67697;50.750;-3.270;2024-02-21T11:58:10;2;2;
78408;PMS5003;67697;50.750;-3.270;2024-02-21T12:00:36;3;1;
78408;PMS5003;67697;50.750;-3.270;2024-02-21T12:03:02;1;0;
78408;PMS5003;67697;50.750;-3.270;2024-02-21T12:05:27;1;1;
78408;PMS5003;67697;50.750;-3.270;2024-02-21T12:07:53;1;1;
78408;PMS5003;67697;50.750;-3.270;2024-02-21T12:10:20;0;0;
78408;PMS5003;67697;50.750;-3.270;2024-02-21T12:12:44;2;2;
78408;PMS5003;67697;50.750;-3.270;2024-02-21T12:15:10;1;1;
78408;PMS5003;67697;50.750;-3.270;2024-02-21T12:17:36;1;0;
78408;PMS5003;67697;50.750;-3.270;2024-02-21T12:20:01;0;0;
78408;PMS5003;67697;50.750;-3.270;2024-02-21T12:22:26;2;0;
78408;PMS5003;67697;50.750;-3.270;2024-02-21T12:24:52;0;0;
78408;PMS5003;67697;50.750;-3.270;2024-02-21T12:27:18;0;0;
78408;PMS5003;67697;50.750;-3.270;2024-02-21T12:29:43;1;1;
78408;PMS5003;67697;50.750;-3.270;2024-02-21T12:32:09;1;1;
78408;PMS5003;67697;50.750;-3.270;2024-02-21T12:34:34;2;2;
78408;PMS5003;67697;50.750;-3.270;2024-02-21T12:37:01;2;2;
78408;PMS5003;67697;50.750;-3.270;2024-02-21T12:39:26;1;1;
78408;PMS5003;67697;50.750;-3.270;2024-02-21T12:41:51;2;2;
78408;PMS5003;67697;50.750;-3.270;2024-02-21T12:44:17;2;2;
78408;PMS5003;67697;50.750;-3.270;2024-02-21T12:46:43;1;1;
78408;PMS5003;67697;50.750;-3.270;2024-02-21T12:49:08;0;0;
78408;PMS5003;67697;50.750;-3.270;2024-02-21T12:51:34;0;0;
78408;PMS5003;67697;50.750;-3.270;2024-02-21T12:53:59;0;0;
78408;PMS5003;67697;50.750;-3.270;2024-02-21T12:56:25;0;0;
78408;PMS5003;67697;50.750;-3.270;2024-02-21T12:58:51;0;0;
78408;PMS5003;67697;50.750;-3.270;2024-02-21T13:01:16;0;0;
78408;PMS5003;67697;50.750;-3.270;2024-02-21T13:03:42;1;0;
78408;PMS5003;67697;50.750;-3.270;2024-02-21T13:06:08;0;0;
78408;PMS5003;67697;50.750;-3.270;2024-02-21T13:08:33;0;0;
78408;PMS5003;67697;50.750;-3.270;2024-02-21T13:10:58;1;1;
78408;PMS5003;67697;50.750;-3.270;2024-02-21T13:13:26;0;0;
78408;PMS5003;67697;50.750;-3.270;2024-02-21T13:15:50;1;1;
78408;PMS5003;67697;50.750;-3.270;2024-02-21T13:18:15;0;0;
78408;PMS5003;67697;50.750;-3.270;2024-02-21T13:20:41;1;1;
78408;PMS5003;67697;50.750;-3.270;2024-02-21T13:23:08;0;0;
78408;PMS5003;67697;50.750;-3.270;2024-02-21T13:25:32;1;1;
78408;PMS5003;67697;50.750;-3.270;2024-02-21T13:27:58;0;0;
78408;PMS5003;67697;50.750;-3.270;2024-02-21T13:30:23;0;0;
78408;PMS5003;67697;50.750;-3.270;2024-02-21T13:32:49;1;0;
78408;PMS5003;67697;50.750;-3.270;2024-02-21T13:35:14;0;0;
78408;PMS5003;67697;50.750;-3.270;2024-02-21T13:37:40;0;0;
78408;PMS5003;67697;50.750;-3.270;2024-02-21T13:40:06;1;0;
78408;PMS5003;67697;50.750;-3.270;2024-02-21T13:42:31;0;0;
78408;PMS5003;67697;50.750;-3.270;2024-02-21T13:44:57;1;1;
78408;PMS5003;67697;50.750;-3.270;2024-02-21T13:47:22;0;0;
78408;PMS5003;67697;50.750;-3.270;2024-02-21T13:49:48;1;1;
78408;PMS5003;67697;50.750;-3.270;2024-02-21T13:52:14;3;0;
78408;PMS5003;67697;50.750;-3.270;2024-02-21T13:54:39;0;0;
78408;PMS5003;67697;50.750;-3.270;2024-02-21T13:57:05;0;0;
78408;PMS5003;67697;50.750;-3.270;2024-02-21T13:59:30;0;0;
78408;PMS5003;67697;50.750;-3.270;2024-02-21T14:01:56;1;1;
78408;PMS5003;67697;50.750;-3.270;2024-02-21T14:04:22;1;1;
78408;PMS5003;67697;50.750;-3.270;2024-02-21T14:06:47;1;1;
78408;PMS5003;67697;50.750;-3.270;2024-02-21T14:09:13;2;1;
78408;PMS5003;67697;50.750;-3.270;2024-02-21T14:11:38;1;1;
78408;PMS5003;67697;50.750;-3.270;2024-02-21T14:14:04;4;3;
78408;PMS5003;67697;50.750;-3.270;2024-02-21T14:16:30;3;2;
78408;PMS5003;67697;50.750;-3.270;2024-02-21T14:18:55;0;0;
78408;PMS5003;67697;50.750;-3.270;2024-02-21T14:21:21;1;1;
78408;PMS5003;67697;50.750;-3.270;2024-02-21T14:23:46;4;1;
78408;PMS5003;67697;50.750;-3.270;2024-02-21T14:26:12;2;2;
78408;PMS5003;67697;50.750;-3.270;2024-02-21T14:28:37;5;3;
78408;PMS5003;67697;50.750;-3.270;2024-02-21T14:31:03;4;3;
78408;PMS5003;67697;50.750;-3.270;2024-02-21T14:33:29;4;2;
78408;PMS5003;67697;50.750;-3.270;2024-02-21T14:35:54;3;3;
78408;PMS5003;67697;50.750;-3.270;2024-02-21T14:38:20;3;2;
78408;PMS5003;67697;50.750;-3.270;2024-02-21T14:40:45;2;2;
78408;PMS5003;67697;50.750;-3.270;2024-02-21T14:43:11;4;2;
78408;PMS5003;67697;50.750;-3.270;2024-02-21T14:45:37;3;2;
78408;PMS5003;67697;50.750;-3.270;2024-02-21T14:48:02;2;2;
78408;PMS5003;67697;50.750;-3.270;2024-02-21T14:50:28;5;3;
78408;PMS5003;67697;50.750;-3.270;2024-02-21T14:52:54;5;4;
78408;PMS5003;67697;50.750;-3.270;2024-02-21T14:55:19;3;3;
78408;PMS5003;67697;50.750;-3.270;2024-02-21T14:57:44;5;4;
78408;PMS5003;67697;50.750;-3.270;2024-02-21T15:00:10;3;3;
78408;PMS5003;67697;50.750;-3.270;2024-02-21T15:02:35;10;5;
78408;PMS5003;67697;50.750;-3.270;2024-02-21T15:05:01;6;4;
78408;PMS5003;67697;50.750;-3.270;2024-02-21T15:07:27;4;3;
78408;PMS5003;67697;50.750;-3.270;2024-02-21T15:09:52;4;3;
78408;PMS5003;67697;50.750;-3.270;2024-02-21T15:12:18;12;5;
78408;PMS5003;67697;50.750;-3.270;2024-02-21T15:14:44;9;4;
78408;PMS5003;67697;50.750;-3.270;2024-02-21T15:17:10;4;4;
78408;PMS5003;67697;50.750;-3.270;2024-02-21T15:19:35;6;6;
78408;PMS5003;67697;50.750;-3.270;2024-02-21T15:22:01;7;5;
78408;PMS5003;67697;50.750;-3.270;2024-02-21T15:24:26;11;7;
78408;PMS5003;67697;50.750;-3.270;2024-02-21T15:26:52;5;5;
78408;PMS5003;67697;50.750;-3.270;2024-02-21T15:29:17;10;6;
78408;PMS5003;67697;50.750;-3.270;2024-02-21T15:31:43;6;2;
78408;PMS5003;67697;50.750;-3.270;2024-02-21T15:34:09;9;5;
78408;PMS5003;67697;50.750;-3.270;2024-02-21T15:36:34;12;4;
78408;PMS5003;67697;50.750;-3.270;2024-02-21T15:39:00;5;4;
78408;PMS5003;67697;50.750;-3.270;2024-02-21T15:41:25;7;4;
78408;PMS5003;67697;50.750;-3.270;2024-02-21T15:43:51;13;5;
78408;PMS5003;67697;50.750;-3.270;2024-02-21T15:46:17;7;6;
78408;PMS5003;67697;50.750;-3.270;2024-02-21T15:48:42;7;5;
78408;PMS5003;67697;50.750;-3.270;2024-02-21T15:51:08;10;6;
78408;PMS5003;67697;50.750;-3.270;2024-02-21T15:53:33;7;6;
78408;PMS5003;67697;50.750;-3.270;2024-02-21T15:55:59;6;4;
78408;PMS5003;67697;50.750;-3.270;2024-02-21T15:58:24;14;6;
78408;PMS5003;67697;50.750;-3.270;2024-02-21T16:00:50;7;4;
78408;PMS5003;67697;50.750;-3.270;2024-02-21T16:03:16;10;3;
78408;PMS5003;67697;50.750;-3.270;2024-02-21T16:05:41;4;3;
78408;PMS5003;67697;50.750;-3.270;2024-02-21T16:08:07;4;4;
78408;PMS5003;67697;50.750;-3.270;2024-02-21T16:10:32;10;7;
78408;PMS5003;67697;50.750;-3.270;2024-02-21T16:12:58;9;7;
78408;PMS5003;67697;50.750;-3.270;2024-02-21T16:15:24;7;5;
78408;PMS5003;67697;50.750;-3.270;2024-02-21T16:17:49;7;4;
78408;PMS5003;67697;50.750;-3.270;2024-02-21T16:20:15;9;5;
78408;PMS5003;67697;50.750;-3.270;2024-02-21T16:22:41;4;4;
78408;PMS5003;67697;50.750;-3.270;2024-02-21T16:25:07;7;4;
78408;PMS5003;67697;50.750;-3.270;2024-02-21T16:27:31;7;5;